createdAt,value
2022-10-20T00:00:21.196Z,998.73
2022-10-20T00:01:21.172Z,998.76
2022-10-20T00:02:21.249Z,998.76
2022-10-20T00:03:21.141Z,998.79
2022-10-20T00:04:21.102Z,998.77
2022-10-20T00:05:21.081Z,998.78
2022-10-20T00:06:21.057Z,998.77
2022-10-20T00:07:21.032Z,998.78
2022-10-20T00:08:21.009Z,998.80
2022-10-20T00:09:20.987Z,998.79
2022-10-20T00:10:20.960Z,998.77
2022-10-20T00:11:20.938Z,998.72
2022-10-20T00:12:20.912Z,998.74
2022-10-20T00:13:20.887Z,998.69
2022-10-20T00:14:20.865Z,998.74
2022-10-20T00:15:20.840Z,998.76
2022-10-20T00:16:20.821Z,998.77
2022-10-20T00:17:20.819Z,998.71
2022-10-20T00:18:20.773Z,998.75
2022-10-20T00:19:20.750Z,998.73
2022-10-20T00:20:20.769Z,998.65
2022-10-20T00:21:20.737Z,998.69
2022-10-20T00:22:20.690Z,998.65
2022-10-20T00:23:20.686Z,998.63
2022-10-20T00:24:20.632Z,998.60
2022-10-20T00:25:20.601Z,998.61
2022-10-20T00:26:20.578Z,998.61
2022-10-20T00:27:20.555Z,998.59
2022-10-20T00:28:20.540Z,998.57
2022-10-20T00:29:20.514Z,998.55
2022-10-20T00:30:22.522Z,998.53
2022-10-20T00:31:20.462Z,998.50
2022-10-20T00:32:20.466Z,998.47
2022-10-20T00:33:20.411Z,998.49
2022-10-20T00:34:20.395Z,998.51
2022-10-20T00:35:20.375Z,998.46
2022-10-20T00:36:20.345Z,998.45
2022-10-20T00:37:20.316Z,998.44
2022-10-20T00:38:20.314Z,998.39
2022-10-20T00:39:20.274Z,998.41
2022-10-20T00:40:20.252Z,998.35
2022-10-20T00:41:20.224Z,998.31
2022-10-20T00:42:20.197Z,998.24
2022-10-20T00:43:20.175Z,998.24
2022-10-20T00:44:20.151Z,998.21
2022-10-20T00:45:20.126Z,998.25
2022-10-20T00:46:20.110Z,998.20
2022-10-20T00:47:20.099Z,998.20
2022-10-20T00:48:20.054Z,998.18
2022-10-20T00:49:20.035Z,998.18
2022-10-20T00:50:20.018Z,998.19
2022-10-20T00:51:19.990Z,998.15
2022-10-20T00:52:19.969Z,998.18
2022-10-20T00:53:19.937Z,998.19
2022-10-20T00:54:19.933Z,998.12
2022-10-20T00:55:19.894Z,998.12
2022-10-20T00:56:19.864Z,998.14
2022-10-20T00:57:19.842Z,998.10
2022-10-20T00:58:19.816Z,998.11
2022-10-20T00:59:19.796Z,998.09
2022-10-20T01:00:19.786Z,998.07
2022-10-20T01:01:19.838Z,998.10
2022-10-20T01:02:19.734Z,998.05
2022-10-20T01:03:19.695Z,998.05
2022-10-20T01:04:19.676Z,998.02
2022-10-20T01:05:19.651Z,997.99
2022-10-20T01:06:19.636Z,997.97
2022-10-20T01:07:19.600Z,997.96
2022-10-20T01:08:19.579Z,997.91
2022-10-20T01:09:19.556Z,997.88
2022-10-20T01:10:19.537Z,997.85
2022-10-20T01:11:19.509Z,997.84
2022-10-20T01:12:19.491Z,997.82
2022-10-20T01:13:19.455Z,997.73
2022-10-20T01:14:19.439Z,997.74
2022-10-20T01:15:19.431Z,997.75
2022-10-20T01:16:19.392Z,997.75
2022-10-20T01:17:19.397Z,997.81
2022-10-20T01:18:19.340Z,997.77
2022-10-20T01:19:19.315Z,997.84
2022-10-20T01:20:19.291Z,997.82
2022-10-20T01:21:19.274Z,997.84
2022-10-20T01:22:19.242Z,997.86
2022-10-20T01:23:19.221Z,997.76
2022-10-20T01:24:19.243Z,997.80
2022-10-20T01:25:19.179Z,997.78
2022-10-20T01:26:19.169Z,997.77
2022-10-20T01:27:19.128Z,997.79
2022-10-20T01:28:19.104Z,997.78
2022-10-20T01:29:19.082Z,997.74
2022-10-20T01:30:19.064Z,997.73
2022-10-20T01:31:19.064Z,997.66
2022-10-20T01:32:19.009Z,997.62
2022-10-20T01:33:19.010Z,997.63
2022-10-20T01:34:18.957Z,997.60
2022-10-20T01:35:18.940Z,997.62
2022-10-20T01:36:18.909Z,997.56
2022-10-20T01:37:28.396Z,997.52
2022-10-20T01:38:18.867Z,997.49
2022-10-20T01:39:18.840Z,997.47
2022-10-20T01:40:18.822Z,997.49
2022-10-20T01:41:18.797Z,997.51
2022-10-20T01:42:18.765Z,997.48
2022-10-20T01:43:18.743Z,997.49
2022-10-20T01:44:18.725Z,997.53
2022-10-20T01:45:18.698Z,997.50
2022-10-20T01:46:18.671Z,997.53
2022-10-20T01:47:18.654Z,997.47
2022-10-20T01:48:18.627Z,997.53
2022-10-20T01:49:18.603Z,997.56
2022-10-20T01:50:18.578Z,997.55
2022-10-20T01:51:18.549Z,997.51
2022-10-20T01:52:18.545Z,997.55
2022-10-20T01:53:18.508Z,997.52
2022-10-20T01:54:18.486Z,997.49
2022-10-20T01:55:18.456Z,997.49
2022-10-20T01:56:18.438Z,997.53
2022-10-20T01:57:18.407Z,997.51
2022-10-20T01:58:18.388Z,997.56
2022-10-20T01:59:18.362Z,997.58
2022-10-20T02:00:18.528Z,997.53
2022-10-20T02:01:18.437Z,997.48
2022-10-20T02:02:18.289Z,997.48
2022-10-20T02:03:18.267Z,997.48
2022-10-20T02:04:18.256Z,997.52
2022-10-20T02:05:18.232Z,997.55
2022-10-20T02:06:18.213Z,997.59
2022-10-20T02:07:18.181Z,997.64
2022-10-20T02:08:18.146Z,997.63
2022-10-20T02:09:18.123Z,997.67
2022-10-20T02:10:18.102Z,997.63
2022-10-20T02:11:18.086Z,997.65
2022-10-20T02:12:18.052Z,997.62
2022-10-20T02:13:18.023Z,997.63
2022-10-20T02:14:18.004Z,997.60
2022-10-20T02:15:17.978Z,997.52
2022-10-20T02:16:17.977Z,997.51
2022-10-20T02:17:17.947Z,997.50
2022-10-20T02:18:17.914Z,997.44
2022-10-20T02:19:17.885Z,997.44
2022-10-20T02:20:17.862Z,997.37
2022-10-20T02:21:17.843Z,997.29
2022-10-20T02:22:17.807Z,997.34
2022-10-20T02:23:17.802Z,997.27
2022-10-20T02:24:17.763Z,997.27
2022-10-20T02:25:17.755Z,997.23
2022-10-20T02:26:17.774Z,997.25
2022-10-20T02:27:17.695Z,997.18
2022-10-20T02:28:17.677Z,997.17
2022-10-20T02:29:17.670Z,997.20
2022-10-20T02:30:17.633Z,997.16
2022-10-20T02:31:17.599Z,997.18
2022-10-20T02:32:17.571Z,997.21
2022-10-20T02:33:17.561Z,997.16
2022-10-20T02:34:17.542Z,997.18
2022-10-20T02:35:17.501Z,997.16
2022-10-20T02:36:17.483Z,997.18
2022-10-20T02:38:17.457Z,997.11
2022-10-20T02:39:17.409Z,997.14
2022-10-20T02:40:17.386Z,997.07
2022-10-20T02:41:17.357Z,997.07
2022-10-20T02:42:17.339Z,997.10
2022-10-20T02:43:17.308Z,997.03
2022-10-20T02:44:17.286Z,997.08
2022-10-20T02:45:17.271Z,997.04
2022-10-20T02:46:17.529Z,997.01
2022-10-20T02:47:17.227Z,996.97
2022-10-20T02:48:17.196Z,996.95
2022-10-20T02:49:17.163Z,996.98
2022-10-20T02:50:17.151Z,996.98
2022-10-20T02:51:17.114Z,996.97
2022-10-20T02:52:17.097Z,996.99
2022-10-20T02:53:17.071Z,996.96
2022-10-20T02:54:17.056Z,996.98
2022-10-20T02:56:16.995Z,996.97
2022-10-20T02:57:16.987Z,996.97
2022-10-20T02:58:16.955Z,996.98
2022-10-20T02:59:16.927Z,996.98
2022-10-20T03:00:16.901Z,996.94
2022-10-20T03:01:16.929Z,997.00
2022-10-20T03:02:16.854Z,996.96
2022-10-20T03:03:17.026Z,996.94
2022-10-20T03:04:16.857Z,996.94
2022-10-20T03:05:16.778Z,996.91
2022-10-20T03:06:16.768Z,996.94
2022-10-20T03:07:16.732Z,996.97
2022-10-20T03:08:16.713Z,996.92
2022-10-20T03:09:16.695Z,996.93
2022-10-20T03:10:16.667Z,996.92
2022-10-20T03:11:16.645Z,996.88
2022-10-20T03:12:16.640Z,996.83
2022-10-20T03:13:16.655Z,996.88
2022-10-20T03:14:16.579Z,996.90
2022-10-20T03:15:16.553Z,996.88
2022-10-20T03:16:16.518Z,996.93
2022-10-20T03:17:16.504Z,996.92
2022-10-20T03:18:16.470Z,996.92
2022-10-20T03:19:16.443Z,996.89
2022-10-20T03:20:16.421Z,996.98
2022-10-20T03:21:16.395Z,997.00
2022-10-20T03:22:16.428Z,996.97
2022-10-20T03:23:19.249Z,997.07
2022-10-20T03:24:16.323Z,997.07
2022-10-20T03:25:16.309Z,997.06
2022-10-20T03:26:16.278Z,997.05
2022-10-20T03:27:16.249Z,997.06
2022-10-20T03:28:16.232Z,997.02
2022-10-20T03:29:16.208Z,997.02
2022-10-20T03:30:16.186Z,996.99
2022-10-20T03:31:16.159Z,996.96
2022-10-20T03:32:16.141Z,996.89
2022-10-20T03:33:16.109Z,996.89
2022-10-20T03:34:16.087Z,996.89
2022-10-20T03:35:16.062Z,996.88
2022-10-20T03:36:16.051Z,996.89
2022-10-20T03:37:16.024Z,996.80
2022-10-20T03:38:15.999Z,996.75
2022-10-20T03:39:15.974Z,996.71
2022-10-20T03:40:15.951Z,996.71
2022-10-20T03:41:15.921Z,996.68
2022-10-20T03:42:15.896Z,996.68
2022-10-20T03:43:15.868Z,996.69
2022-10-20T03:44:15.851Z,996.78
2022-10-20T03:45:18.525Z,996.80
2022-10-20T03:46:15.804Z,996.90
2022-10-20T03:47:15.781Z,996.92
2022-10-20T03:48:15.755Z,996.94
2022-10-20T03:49:15.736Z,996.94
2022-10-20T03:50:15.708Z,996.93
2022-10-20T03:51:15.687Z,996.97
2022-10-20T03:52:15.675Z,996.97
2022-10-20T03:53:15.634Z,997.00
2022-10-20T03:54:15.613Z,996.96
2022-10-20T03:55:15.586Z,997.02
2022-10-20T03:56:15.587Z,997.01
2022-10-20T03:57:15.543Z,996.99
2022-10-20T03:58:15.519Z,997.05
2022-10-20T03:59:15.489Z,996.97
2022-10-20T04:00:15.468Z,996.94
2022-10-20T04:01:15.510Z,996.82
2022-10-20T04:02:15.427Z,996.81
2022-10-20T04:03:15.398Z,996.74
2022-10-20T04:04:15.372Z,996.74
2022-10-20T04:05:15.343Z,996.68
2022-10-20T04:06:15.335Z,996.66
2022-10-20T04:07:15.298Z,996.70
2022-10-20T04:09:15.261Z,996.66
2022-10-20T04:10:15.241Z,996.66
2022-10-20T04:11:15.211Z,996.62
2022-10-20T04:12:15.183Z,996.59
2022-10-20T04:13:15.156Z,996.56
2022-10-20T04:14:15.133Z,996.54
2022-10-20T04:15:15.104Z,996.51
2022-10-20T04:16:15.120Z,996.45
2022-10-20T04:17:15.069Z,996.43
2022-10-20T04:18:15.047Z,996.39
2022-10-20T04:19:15.014Z,996.35
2022-10-20T04:20:14.991Z,996.29
2022-10-20T04:21:14.963Z,996.23
2022-10-20T04:22:14.942Z,996.21
2022-10-20T04:23:14.932Z,996.17
2022-10-20T04:24:15.084Z,996.12
2022-10-20T04:25:15.008Z,996.15
2022-10-20T04:26:14.998Z,996.15
2022-10-20T04:27:14.829Z,996.10
2022-10-20T04:28:14.916Z,996.15
2022-10-20T04:29:14.932Z,996.10
2022-10-20T04:30:14.809Z,996.04
2022-10-20T04:31:14.746Z,996.09
2022-10-20T04:32:14.710Z,996.07
2022-10-20T04:33:14.681Z,996.00
2022-10-20T04:34:14.655Z,995.95
2022-10-20T04:35:14.634Z,995.99
2022-10-20T04:36:14.608Z,995.95
2022-10-20T04:37:14.593Z,995.99
2022-10-20T04:38:14.588Z,995.94
2022-10-20T04:39:14.534Z,995.96
2022-10-20T04:40:14.513Z,995.96
2022-10-20T04:41:14.490Z,996.00
2022-10-20T04:42:14.464Z,996.02
2022-10-20T04:43:14.450Z,996.05
2022-10-20T04:44:14.425Z,995.99
2022-10-20T04:45:14.387Z,996.06
2022-10-20T04:46:14.374Z,996.07
2022-10-20T04:47:14.344Z,996.11
2022-10-20T04:48:14.321Z,996.14
2022-10-20T04:49:14.297Z,996.14
2022-10-20T04:50:14.282Z,996.21
2022-10-20T04:51:14.248Z,996.09
2022-10-20T04:52:14.225Z,996.18
2022-10-20T04:53:14.201Z,996.09
2022-10-20T04:54:14.212Z,996.16
2022-10-20T04:55:14.150Z,996.15
2022-10-20T04:56:14.133Z,996.14
2022-10-20T04:57:14.101Z,996.16
2022-10-20T04:58:14.080Z,996.16
2022-10-20T04:59:14.056Z,996.19
2022-10-20T05:00:14.037Z,996.17
2022-10-20T05:01:14.052Z,996.18
2022-10-20T05:02:14.044Z,996.23
2022-10-20T05:03:13.964Z,996.15
2022-10-20T05:04:13.956Z,996.18
2022-10-20T05:05:13.912Z,996.13
2022-10-20T05:06:13.890Z,996.08
2022-10-20T05:07:13.870Z,996.12
2022-10-20T05:08:13.842Z,996.10
2022-10-20T05:09:13.848Z,996.11
2022-10-20T05:10:13.799Z,996.04
2022-10-20T05:11:13.768Z,996.07
2022-10-20T05:13:13.735Z,996.08
2022-10-20T05:14:13.701Z,996.12
2022-10-20T05:15:13.672Z,996.04
2022-10-20T05:16:13.659Z,996.02
2022-10-20T05:17:13.674Z,996.01
2022-10-20T05:18:13.606Z,996.01
2022-10-20T05:19:13.585Z,995.99
2022-10-20T05:20:13.559Z,995.97
2022-10-20T05:21:13.530Z,995.97
2022-10-20T05:22:13.515Z,995.96
2022-10-20T05:23:13.483Z,995.97
2022-10-20T05:24:16.747Z,995.94
2022-10-20T05:25:35.058Z,995.91
2022-10-20T05:26:13.419Z,995.87
2022-10-20T05:27:13.392Z,995.87
2022-10-20T05:28:13.376Z,995.86
2022-10-20T05:29:13.355Z,995.94
2022-10-20T05:30:13.321Z,995.92
2022-10-20T05:31:13.300Z,995.97
2022-10-20T05:32:13.279Z,995.91
2022-10-20T05:33:13.251Z,995.89
2022-10-20T05:34:13.227Z,995.88
2022-10-20T05:35:13.206Z,995.87
2022-10-20T05:36:15.888Z,995.85
2022-10-20T05:37:13.153Z,995.87
2022-10-20T05:38:13.133Z,995.74
2022-10-20T05:39:13.105Z,995.79
2022-10-20T05:40:13.087Z,995.74
2022-10-20T05:41:13.065Z,995.69
2022-10-20T05:42:13.037Z,995.71
2022-10-20T05:43:14.116Z,995.64
2022-10-20T05:44:12.987Z,995.65
2022-10-20T05:45:12.962Z,995.64
2022-10-20T05:46:12.940Z,995.66
2022-10-20T05:47:12.948Z,995.66
2022-10-20T05:48:12.924Z,995.64
2022-10-20T05:49:12.869Z,995.61
2022-10-20T05:50:12.842Z,995.62
2022-10-20T05:51:14.849Z,995.52
2022-10-20T05:52:12.797Z,995.65
2022-10-20T05:53:12.793Z,995.58
2022-10-20T05:54:12.757Z,995.62
2022-10-20T05:55:12.745Z,995.68
2022-10-20T05:56:12.711Z,995.70
2022-10-20T05:57:12.672Z,995.63
2022-10-20T05:58:12.652Z,995.60
2022-10-20T05:59:12.629Z,995.60
2022-10-20T06:00:12.611Z,995.61
2022-10-20T06:01:12.578Z,995.63
2022-10-20T06:02:12.565Z,995.60
2022-10-20T06:03:16.074Z,995.64
2022-10-20T06:04:12.511Z,995.61
2022-10-20T06:05:12.492Z,995.55
2022-10-20T06:06:12.462Z,995.58
2022-10-20T06:07:12.448Z,995.56
2022-10-20T06:08:12.418Z,995.55
2022-10-20T06:09:12.397Z,995.51
2022-10-20T06:10:12.377Z,995.60
2022-10-20T06:11:12.345Z,995.64
2022-10-20T06:12:12.337Z,995.64
2022-10-20T06:13:12.298Z,995.78
2022-10-20T06:14:12.271Z,995.75
2022-10-20T06:15:12.253Z,995.75
2022-10-20T06:16:12.227Z,995.75
2022-10-20T06:17:12.204Z,995.69
2022-10-20T06:18:12.247Z,995.72
2022-10-20T06:19:12.165Z,995.80
2022-10-20T06:20:12.139Z,995.81
2022-10-20T06:21:12.158Z,995.78
2022-10-20T06:22:12.081Z,995.81
2022-10-20T06:23:12.064Z,995.75
2022-10-20T06:24:12.035Z,995.80
2022-10-20T06:25:12.020Z,995.79
2022-10-20T06:26:12.000Z,995.75
2022-10-20T06:27:11.994Z,995.83
2022-10-20T06:28:11.946Z,995.81
2022-10-20T06:29:11.918Z,995.74
2022-10-20T06:30:11.907Z,995.75
2022-10-20T06:31:11.878Z,995.74
2022-10-20T06:32:11.849Z,995.73
2022-10-20T06:33:11.830Z,995.81
2022-10-20T06:34:11.808Z,995.87
2022-10-20T06:35:11.781Z,995.82
2022-10-20T06:36:11.762Z,995.86
2022-10-20T06:37:11.749Z,995.83
2022-10-20T06:38:11.743Z,995.83
2022-10-20T06:39:11.729Z,995.82
2022-10-20T06:40:11.672Z,995.84
2022-10-20T06:41:11.649Z,995.89
2022-10-20T06:42:12.332Z,995.83
2022-10-20T06:43:11.595Z,995.82
2022-10-20T06:44:11.569Z,995.78
2022-10-20T06:45:14.388Z,995.80
2022-10-20T06:46:11.527Z,995.82
2022-10-20T06:47:11.501Z,995.84
2022-10-20T06:48:11.479Z,995.90
2022-10-20T06:49:11.466Z,995.92
2022-10-20T06:50:11.435Z,995.94
2022-10-20T06:51:11.408Z,995.97
2022-10-20T06:53:11.364Z,996.04
2022-10-20T06:54:11.370Z,996.03
2022-10-20T06:55:11.315Z,996.07
2022-10-20T06:56:11.300Z,996.07
2022-10-20T06:57:11.305Z,996.05
2022-10-20T06:58:11.247Z,996.07
2022-10-20T06:59:11.236Z,996.13
2022-10-20T07:00:11.203Z,996.14
2022-10-20T07:01:11.289Z,996.21
2022-10-20T07:02:11.209Z,996.23
2022-10-20T07:03:11.125Z,996.23
2022-10-20T07:04:11.112Z,996.32
2022-10-20T07:05:11.085Z,996.39
2022-10-20T07:06:11.060Z,996.41
2022-10-20T07:07:11.065Z,996.44
2022-10-20T07:08:11.017Z,996.59
2022-10-20T07:09:11.058Z,996.56
2022-10-20T07:10:10.975Z,996.56
2022-10-20T07:11:10.948Z,996.54
2022-10-20T07:12:10.919Z,996.54
2022-10-20T07:13:10.900Z,996.50
2022-10-20T07:14:10.889Z,996.50
2022-10-20T07:15:10.858Z,996.42
2022-10-20T07:16:10.830Z,996.47
2022-10-20T07:17:10.827Z,996.41
2022-10-20T07:18:10.812Z,996.39
2022-10-20T07:19:10.777Z,996.39
2022-10-20T07:20:10.764Z,996.44
2022-10-20T07:21:10.720Z,996.49
2022-10-20T07:22:10.695Z,996.54
2022-10-20T07:23:10.675Z,996.56
2022-10-20T07:24:10.657Z,996.59
2022-10-20T07:25:10.629Z,996.66
2022-10-20T07:26:10.600Z,996.64
2022-10-20T07:27:10.599Z,996.59
2022-10-20T07:28:10.553Z,996.53
2022-10-20T07:29:10.542Z,996.48
2022-10-20T07:30:10.510Z,996.46
2022-10-20T07:31:10.497Z,996.49
2022-10-20T07:32:10.464Z,996.44
2022-10-20T07:33:10.441Z,996.50
2022-10-20T07:34:27.477Z,996.53
2022-10-20T07:35:10.399Z,996.47
2022-10-20T07:36:10.376Z,996.46
2022-10-20T07:37:10.411Z,996.37
2022-10-20T07:38:10.330Z,996.26
2022-10-20T07:39:10.322Z,996.24
2022-10-20T07:40:10.282Z,996.23
2022-10-20T07:41:10.260Z,996.27
2022-10-20T07:42:10.236Z,996.28
2022-10-20T07:43:10.218Z,996.32
2022-10-20T07:44:10.193Z,996.36
2022-10-20T07:45:10.173Z,996.34
2022-10-20T07:46:10.158Z,996.34
2022-10-20T07:47:10.131Z,996.31
2022-10-20T07:48:10.108Z,996.29
2022-10-20T07:49:42.981Z,996.30
2022-10-20T07:50:10.084Z,996.33
2022-10-20T07:51:10.104Z,996.30
2022-10-20T07:52:10.019Z,996.31
2022-10-20T07:53:09.992Z,996.33
2022-10-20T07:54:09.970Z,996.35
2022-10-20T07:55:17.979Z,996.42
2022-10-20T07:56:09.929Z,996.38
2022-10-20T07:57:09.912Z,996.37
2022-10-20T07:58:09.883Z,996.32
2022-10-20T07:59:09.868Z,996.29
2022-10-20T08:00:09.846Z,996.26
2022-10-20T08:01:09.826Z,996.21
2022-10-20T08:02:09.893Z,996.18
2022-10-20T08:03:09.786Z,996.09
2022-10-20T08:04:09.766Z,996.05
2022-10-20T08:05:09.725Z,996.02
2022-10-20T08:06:09.711Z,996.00
2022-10-20T08:07:09.682Z,996.02
2022-10-20T08:08:09.660Z,996.08
2022-10-20T08:09:09.638Z,996.13
2022-10-20T08:10:09.629Z,996.22
2022-10-20T08:11:10.493Z,996.32
2022-10-20T08:12:09.574Z,996.40
2022-10-20T08:13:09.550Z,996.46
2022-10-20T08:14:09.542Z,996.50
2022-10-20T08:15:12.041Z,996.44
2022-10-20T08:16:11.529Z,996.41
2022-10-20T08:17:09.471Z,996.36
2022-10-20T08:18:09.449Z,996.41
2022-10-20T08:19:25.043Z,996.34
2022-10-20T08:20:11.038Z,996.30
2022-10-20T08:21:09.397Z,996.24
2022-10-20T08:22:09.363Z,996.28
2022-10-20T08:23:09.347Z,996.25
2022-10-20T08:24:09.322Z,996.31
2022-10-20T08:25:09.295Z,996.30
2022-10-20T08:26:11.378Z,996.26
2022-10-20T08:27:09.260Z,996.21
2022-10-20T08:28:09.231Z,996.22
2022-10-20T08:29:09.207Z,996.19
2022-10-20T08:30:24.655Z,996.14
2022-10-20T08:31:09.169Z,996.13
2022-10-20T08:32:09.167Z,996.14
2022-10-20T08:33:09.118Z,996.09
2022-10-20T08:34:09.109Z,996.12
2022-10-20T08:35:09.094Z,996.13
2022-10-20T08:36:09.086Z,996.14
2022-10-20T08:37:09.097Z,996.07
2022-10-20T08:38:09.013Z,996.07
2022-10-20T08:39:08.991Z,996.00
2022-10-20T08:40:08.994Z,996.05
2022-10-20T08:41:08.968Z,996.05
2022-10-20T08:42:09.699Z,996.06
2022-10-20T08:43:08.905Z,996.09
2022-10-20T08:44:08.890Z,996.12
2022-10-20T08:45:08.894Z,996.17
2022-10-20T08:46:08.906Z,996.16
2022-10-20T08:47:08.864Z,996.06
2022-10-20T08:48:08.824Z,996.04
2022-10-20T08:49:08.792Z,996.03
2022-10-20T08:50:08.779Z,995.96
2022-10-20T08:51:08.742Z,995.94
2022-10-20T08:52:08.738Z,995.93
2022-10-20T08:53:08.695Z,995.94
2022-10-20T08:54:08.672Z,995.90
2022-10-20T08:55:08.755Z,995.94
2022-10-20T08:56:08.643Z,995.98
2022-10-20T08:57:08.613Z,995.96
2022-10-20T08:58:08.595Z,996.00
2022-10-20T08:59:08.570Z,995.98
2022-10-20T09:00:09.183Z,995.95
2022-10-20T09:01:08.530Z,995.93
2022-10-20T09:02:08.578Z,995.86
2022-10-20T09:03:08.515Z,995.83
2022-10-20T09:04:08.467Z,995.87
2022-10-20T09:05:08.446Z,995.83
2022-10-20T09:06:08.423Z,995.78
2022-10-20T09:07:08.407Z,995.73
2022-10-20T09:08:08.442Z,995.70
2022-10-20T09:09:08.484Z,995.67
2022-10-20T09:10:08.343Z,995.66
2022-10-20T09:11:08.319Z,995.66
2022-10-20T09:12:08.297Z,995.71
2022-10-20T09:13:08.281Z,995.74
2022-10-20T09:14:08.323Z,995.83
2022-10-20T09:15:08.245Z,995.87
2022-10-20T09:16:08.218Z,995.90
2022-10-20T09:17:11.408Z,995.86
2022-10-20T09:18:08.200Z,995.82
2022-10-20T09:19:08.164Z,995.85
2022-10-20T09:20:08.139Z,995.77
2022-10-20T09:21:08.137Z,995.85
2022-10-20T09:22:08.094Z,995.81
2022-10-20T09:23:28.308Z,995.83
2022-10-20T09:24:08.092Z,995.80
2022-10-20T09:25:08.036Z,995.80
2022-10-20T09:26:08.038Z,995.79
2022-10-20T09:27:08.000Z,995.77
2022-10-20T09:28:08.009Z,995.78
2022-10-20T09:29:13.484Z,995.84
2022-10-20T09:30:07.937Z,995.89
2022-10-20T09:31:07.916Z,995.97
2022-10-20T09:32:33.966Z,995.93
2022-10-20T09:33:07.880Z,995.96
2022-10-20T09:34:08.358Z,995.92
2022-10-20T09:35:07.860Z,995.90
2022-10-20T09:36:07.823Z,995.94
2022-10-20T09:37:07.827Z,996.01
2022-10-20T09:38:07.813Z,996.05
2022-10-20T09:39:07.769Z,996.05
2022-10-20T09:40:07.760Z,996.00
2022-10-20T09:41:07.764Z,996.04
2022-10-20T09:42:07.718Z,995.98
2022-10-20T09:43:07.695Z,995.99
2022-10-20T09:44:07.687Z,995.91
2022-10-20T09:45:07.654Z,995.85
2022-10-20T09:46:07.640Z,995.88
2022-10-20T09:47:07.619Z,995.93
2022-10-20T09:48:07.722Z,995.90
2022-10-20T09:49:07.597Z,995.86
2022-10-20T09:50:07.562Z,995.86
2022-10-20T09:51:07.593Z,995.88
2022-10-20T09:52:07.527Z,995.89
2022-10-20T09:53:07.513Z,995.94
2022-10-20T09:54:07.487Z,995.99
2022-10-20T09:55:07.464Z,995.96
2022-10-20T09:56:07.472Z,995.95
2022-10-20T09:57:07.456Z,996.01
2022-10-20T09:58:07.404Z,996.02
2022-10-20T09:59:07.406Z,996.06
2022-10-20T10:00:25.256Z,996.14
2022-10-20T10:01:07.373Z,996.12
2022-10-20T10:02:07.370Z,996.09
2022-10-20T10:03:07.314Z,996.06
2022-10-20T10:04:10.932Z,996.10
2022-10-20T10:05:07.298Z,996.10
2022-10-20T10:06:07.274Z,996.16
2022-10-20T10:07:07.249Z,996.21
2022-10-20T10:08:07.264Z,996.25
2022-10-20T10:09:07.247Z,996.21
2022-10-20T10:10:08.547Z,996.17
2022-10-20T10:11:07.180Z,996.19
2022-10-20T10:12:07.151Z,996.12
2022-10-20T10:14:07.113Z,996.15
2022-10-20T10:15:07.129Z,996.17
2022-10-20T10:16:07.170Z,996.13
2022-10-20T10:18:07.092Z,996.06
2022-10-20T10:19:07.068Z,996.01
2022-10-20T10:20:07.015Z,996.02
2022-10-20T10:21:06.988Z,996.02
2022-10-20T10:22:06.972Z,996.01
2022-10-20T10:23:06.965Z,995.98
2022-10-20T10:24:06.942Z,996.00
2022-10-20T10:26:06.979Z,995.96
2022-10-20T10:27:06.885Z,995.94
2022-10-20T10:28:06.896Z,995.93
2022-10-20T10:29:06.853Z,995.91
2022-10-20T10:30:06.832Z,995.93
2022-10-20T10:31:06.811Z,995.91
2022-10-20T10:32:06.851Z,995.91
2022-10-20T10:33:06.763Z,995.91
2022-10-20T10:34:06.753Z,995.87
2022-10-20T10:35:06.741Z,995.86
2022-10-20T10:36:06.712Z,995.81
2022-10-20T10:37:06.739Z,995.80
2022-10-20T10:38:06.680Z,995.80
2022-10-20T10:39:06.666Z,995.78
2022-10-20T10:40:06.642Z,995.80
2022-10-20T10:41:06.621Z,995.77
2022-10-20T10:42:06.603Z,995.76
2022-10-20T10:43:06.583Z,995.73
2022-10-20T10:44:06.564Z,995.67
2022-10-20T10:45:06.580Z,995.62
2022-10-20T10:46:06.526Z,995.59
2022-10-20T10:47:06.509Z,995.61
2022-10-20T10:48:06.486Z,995.57
2022-10-20T10:49:06.464Z,995.60
2022-10-20T10:50:06.454Z,995.59
2022-10-20T10:51:06.438Z,995.49
2022-10-20T10:52:06.414Z,995.39
2022-10-20T10:53:06.428Z,995.36
2022-10-20T10:54:11.613Z,995.31
2022-10-20T10:55:06.369Z,995.34
2022-10-20T10:56:06.402Z,995.36
2022-10-20T10:57:08.047Z,995.29
2022-10-20T10:58:06.313Z,995.28
2022-10-20T10:59:06.288Z,995.28
2022-10-20T11:00:06.296Z,995.31
2022-10-20T11:01:06.306Z,995.33
2022-10-20T11:02:06.223Z,995.35
2022-10-20T11:03:06.194Z,995.38
2022-10-20T11:04:06.176Z,995.37
2022-10-20T11:05:06.224Z,995.43
2022-10-20T11:06:06.153Z,995.42
2022-10-20T11:07:06.114Z,995.39
2022-10-20T11:08:06.096Z,995.35
2022-10-20T11:09:06.137Z,995.30
2022-10-20T11:10:06.061Z,995.19
2022-10-20T11:11:06.038Z,995.11
2022-10-20T11:12:06.051Z,995.06
2022-10-20T11:13:06.038Z,995.08
2022-10-20T11:14:06.025Z,995.07
2022-10-20T11:15:05.958Z,995.05
2022-10-20T11:16:05.938Z,995.06
2022-10-20T11:17:05.915Z,995.11
2022-10-20T11:18:05.907Z,995.17
2022-10-20T11:19:05.884Z,995.13
2022-10-20T11:20:05.946Z,995.05
2022-10-20T11:21:05.841Z,994.95
2022-10-20T11:22:07.629Z,994.95
2022-10-20T11:23:05.825Z,994.92
2022-10-20T11:24:05.796Z,994.78
2022-10-20T11:25:05.792Z,994.71
2022-10-20T11:26:05.744Z,994.71
2022-10-20T11:27:05.778Z,994.83
2022-10-20T11:28:05.708Z,994.80
2022-10-20T11:29:05.685Z,994.74
2022-10-20T11:30:05.699Z,994.69
2022-10-20T11:31:05.656Z,994.77
2022-10-20T11:32:05.634Z,994.82
2022-10-20T11:33:05.621Z,994.83
2022-10-20T11:34:05.597Z,994.83
2022-10-20T11:35:05.579Z,994.83
2022-10-20T11:36:05.564Z,994.83
2022-10-20T11:37:05.534Z,994.83
2022-10-20T11:38:05.530Z,994.82
2022-10-20T11:39:05.506Z,994.86
2022-10-20T11:40:07.824Z,994.83
2022-10-20T11:41:05.460Z,994.88
2022-10-20T11:42:05.447Z,994.92
2022-10-20T11:43:08.814Z,994.81
2022-10-20T11:44:05.413Z,994.81
2022-10-20T11:45:05.395Z,994.78
2022-10-20T11:46:05.387Z,994.79
2022-10-20T11:47:05.363Z,994.86
2022-10-20T11:48:05.346Z,994.84
2022-10-20T11:49:05.324Z,994.80
2022-10-20T11:50:05.317Z,994.80
2022-10-20T11:52:05.277Z,994.78
2022-10-20T11:53:05.251Z,994.77
2022-10-20T11:54:05.236Z,994.89
2022-10-20T11:55:05.234Z,994.85
2022-10-20T11:56:05.207Z,994.87
2022-10-20T11:57:05.204Z,994.83
2022-10-20T11:58:05.169Z,994.86
2022-10-20T11:59:05.216Z,994.87
2022-10-20T12:00:05.198Z,994.92
2022-10-20T12:01:05.149Z,994.93
2022-10-20T12:02:05.151Z,994.92
2022-10-20T12:03:05.092Z,994.90
2022-10-20T12:04:05.095Z,994.92
2022-10-20T12:05:05.047Z,994.85
2022-10-20T12:07:05.002Z,994.77
2022-10-20T12:08:28.366Z,994.75
2022-10-20T12:09:05.020Z,994.73
2022-10-20T12:10:04.955Z,994.77
2022-10-20T12:11:04.943Z,994.76
2022-10-20T12:12:04.917Z,994.76
2022-10-20T12:13:04.897Z,994.81
2022-10-20T12:14:04.878Z,994.73
2022-10-20T12:15:04.864Z,994.73
2022-10-20T12:16:04.843Z,994.82
2022-10-20T12:17:04.823Z,994.83
2022-10-20T12:18:04.805Z,994.84
2022-10-20T12:19:04.786Z,994.84
2022-10-20T12:20:04.790Z,994.88
2022-10-20T12:21:04.754Z,994.90
2022-10-20T12:22:04.721Z,994.94
2022-10-20T12:23:04.705Z,994.94
2022-10-20T12:24:04.698Z,994.90
2022-10-20T12:25:04.669Z,994.77
2022-10-20T12:26:04.643Z,994.75
2022-10-20T12:27:04.629Z,994.69
2022-10-20T12:28:04.614Z,994.63
2022-10-20T12:29:04.586Z,994.64
2022-10-20T12:30:04.569Z,994.60
2022-10-20T12:31:04.556Z,994.58
2022-10-20T12:32:04.529Z,994.59
2022-10-20T12:33:04.521Z,994.67
2022-10-20T12:34:04.506Z,994.73
2022-10-20T12:35:04.492Z,994.75
2022-10-20T12:36:04.462Z,994.82
2022-10-20T12:37:04.440Z,994.88
2022-10-20T12:38:04.457Z,994.89